Archival Weather

Chicago O'Hare International

Chicago, Illinois (KORD)

Report from: Thursday, November 24, 2022 2:51 PM CST
Current time: Sunday, December 4, 2022 6:53 AM CST

Current weather
Weather history
Weather forecast

Temperature11.1°C (52.0°F)
Dew point5.0°C (41.0°F)
Winds 7 kts (3.6 m/s, 8.1 mph) West-Southwest (240°)
Visibility10 mi. (16.1 km)
Clouds Ceiling: Overcast 2,600 ft. (792 m)
Altimeter30.04 in.Hg (1017 mB)
Relative humidity66 %
Density altitude-473 ft. (-144 m)
Sea-level pressure101.8 kPa (1018 mB, 30.05 in.Hg)
Remarks System requires maintenance
Automated weather observing station with precipitation discriminator
Pressure falling, then rising
Flight conditions Marginal Visual Meteorological Conditions
Raw dataKORD 242051Z 24007KT 10SM OVC026 11/05 A3004 RMK AO2 SLP175 T01110050 55014 $
An error has occurred. This application may no longer respond until reloaded. Reload 🗙